sensor_id;sensor_type;location;lat;lon;timestamp;pressure;altitude;pressure_sealevel;temperature;humidity
67373;BME280;54257;54.496;18.412;2023-03-03T00:01:34;100125.80;;;-1.02;94.41
67373;BME280;54257;54.496;18.412;2023-03-03T00:04:01;100120.70;;;-1.04;94.25
67373;BME280;54257;54.496;18.412;2023-03-03T00:06:28;100113.51;;;-1.06;94.73
67373;BME280;54257;54.496;18.412;2023-03-03T00:08:56;100105.98;;;-1.08;95.01
67373;BME280;54257;54.496;18.412;2023-03-03T00:11:23;100096.47;;;-1.10;94.95
67373;BME280;54257;54.496;18.412;2023-03-03T00:13:52;100092.64;;;-1.12;95.20
67373;BME280;54257;54.496;18.412;2023-03-03T00:16:24;100090.52;;;-1.14;95.07
67373;BME280;54257;54.496;18.412;2023-03-03T00:18:53;100084.63;;;-1.15;95.03
67373;BME280;54257;54.496;18.412;2023-03-03T00:21:39;100085.09;;;-1.15;95.06
67373;BME280;54257;54.496;18.412;2023-03-03T00:24:23;100080.84;;;-1.16;95.16
67373;BME280;54257;54.496;18.412;2023-03-03T00:26:55;100072.08;;;-1.17;95.31
67373;BME280;54257;54.496;18.412;2023-03-03T00:29:30;100067.41;;;-1.19;95.02
67373;BME280;54257;54.496;18.412;2023-03-03T00:34:35;100081.38;;;-1.18;95.02
67373;BME280;54257;54.496;18.412;2023-03-03T00:37:02;100075.16;;;-1.19;95.04
67373;BME280;54257;54.496;18.412;2023-03-03T00:39:36;100067.82;;;-1.18;94.92
67373;BME280;54257;54.496;18.412;2023-03-03T00:42:13;100070.81;;;-1.19;94.97
67373;BME280;54257;54.496;18.412;2023-03-03T00:47:37;100077.02;;;-1.18;95.10
67373;BME280;54257;54.496;18.412;2023-03-03T00:52:39;100073.10;;;-1.19;95.53
67373;BME280;54257;54.496;18.412;2023-03-03T00:55:10;100074.55;;;-1.20;95.80
67373;BME280;54257;54.496;18.412;2023-03-03T00:57:37;100073.17;;;-1.21;96.23
67373;BME280;54257;54.496;18.412;2023-03-03T01:00:05;100067.46;;;-1.21;96.34
67373;BME280;54257;54.496;18.412;2023-03-03T01:02:32;100064.45;;;-1.21;96.22
67373;BME280;54257;54.496;18.412;2023-03-03T01:04:59;100054.06;;;-1.21;96.49
67373;BME280;54257;54.496;18.412;2023-03-03T01:07:25;100052.86;;;-1.21;96.66
67373;BME280;54257;54.496;18.412;2023-03-03T01:09:52;100055.05;;;-1.21;97.06
67373;BME280;54257;54.496;18.412;2023-03-03T01:12:19;100060.77;;;-1.21;97.21
67373;BME280;54257;54.496;18.412;2023-03-03T01:14:47;100064.46;;;-1.21;97.94
67373;BME280;54257;54.496;18.412;2023-03-03T01:17:14;100055.95;;;-1.20;97.96
67373;BME280;54257;54.496;18.412;2023-03-03T01:19:41;100055.71;;;-1.19;98.12
67373;BME280;54257;54.496;18.412;2023-03-03T01:22:08;100051.80;;;-1.17;98.62
67373;BME280;54257;54.496;18.412;2023-03-03T01:24:35;100053.68;;;-1.14;98.69
67373;BME280;54257;54.496;18.412;2023-03-03T01:27:02;100049.15;;;-1.11;98.67
67373;BME280;54257;54.496;18.412;2023-03-03T01:29:29;100046.84;;;-1.08;98.96
67373;BME280;54257;54.496;18.412;2023-03-03T01:31:56;100039.00;;;-1.05;99.16
67373;BME280;54257;54.496;18.412;2023-03-03T01:34:23;100045.51;;;-1.03;99.02
67373;BME280;54257;54.496;18.412;2023-03-03T01:36:51;100046.46;;;-1.01;99.63
67373;BME280;54257;54.496;18.412;2023-03-03T01:39:17;100051.31;;;-0.98;99.46
67373;BME280;54257;54.496;18.412;2023-03-03T01:41:44;100053.20;;;-0.95;99.52
67373;BME280;54257;54.496;18.412;2023-03-03T01:44:15;100049.64;;;-0.93;99.72
67373;BME280;54257;54.496;18.412;2023-03-03T01:49:18;100053.88;;;-0.87;99.61
67373;BME280;54257;54.496;18.412;2023-03-03T01:51:53;100050.33;;;-0.85;99.64
67373;BME280;54257;54.496;18.412;2023-03-03T01:54:27;100040.92;;;-0.82;99.70
67373;BME280;54257;54.496;18.412;2023-03-03T01:56:58;100034.84;;;-0.80;99.92
67373;BME280;54257;54.496;18.412;2023-03-03T01:59:35;100037.16;;;-0.78;99.89
67373;BME280;54257;54.496;18.412;2023-03-03T02:02:04;100033.59;;;-0.76;99.96
67373;BME280;54257;54.496;18.412;2023-03-03T02:04:31;100038.65;;;-0.73;99.71
67373;BME280;54257;54.496;18.412;2023-03-03T02:07:02;100033.96;;;-0.70;99.85
67373;BME280;54257;54.496;18.412;2023-03-03T02:12:20;100021.54;;;-0.65;100.00
67373;BME280;54257;54.496;18.412;2023-03-03T02:14:49;100025.75;;;-0.62;99.80
67373;BME280;54257;54.496;18.412;2023-03-03T02:17:16;100021.52;;;-0.60;99.97
67373;BME280;54257;54.496;18.412;2023-03-03T02:20:10;100017.62;;;-0.58;99.97
67373;BME280;54257;54.496;18.412;2023-03-03T02:23:22;100012.35;;;-0.57;99.98
67373;BME280;54257;54.496;18.412;2023-03-03T02:28:25;100015.70;;;-0.51;100.00
67373;BME280;54257;54.496;18.412;2023-03-03T02:30:54;100015.07;;;-0.48;100.00
67373;BME280;54257;54.496;18.412;2023-03-03T02:33:44;100010.46;;;-0.46;100.00
67373;BME280;54257;54.496;18.412;2023-03-03T02:36:34;100019.99;;;-0.44;100.00
67373;BME280;54257;54.496;18.412;2023-03-03T02:39:26;100015.75;;;-0.42;100.00
67373;BME280;54257;54.496;18.412;2023-03-03T02:42:22;100018.43;;;-0.40;100.00
67373;BME280;54257;54.496;18.412;2023-03-03T02:45:12;100017.71;;;-0.37;100.00
67373;BME280;54257;54.496;18.412;2023-03-03T02:47:59;100009.31;;;-0.35;100.00
67373;BME280;54257;54.496;18.412;2023-03-03T02:50:47;100008.81;;;-0.32;100.00
67373;BME280;54257;54.496;18.412;2023-03-03T02:53:35;100001.70;;;-0.30;100.00
67373;BME280;54257;54.496;18.412;2023-03-03T02:56:23;99996.79;;;-0.28;100.00
67373;BME280;54257;54.496;18.412;2023-03-03T02:59:11;99999.23;;;-0.24;100.00
67373;BME280;54257;54.496;18.412;2023-03-03T03:01:59;100011.45;;;-0.21;100.00
67373;BME280;54257;54.496;18.412;2023-03-03T03:04:47;100010.10;;;-0.19;100.00
67373;BME280;54257;54.496;18.412;2023-03-03T03:07:35;100005.46;;;-0.15;100.00
67373;BME280;54257;54.496;18.412;2023-03-03T03:10:23;100003.73;;;-0.13;100.00
67373;BME280;54257;54.496;18.412;2023-03-03T03:13:11;100007.29;;;-0.09;100.00
67373;BME280;54257;54.496;18.412;2023-03-03T03:15:59;100001.23;;;-0.07;100.00
67373;BME280;54257;54.496;18.412;2023-03-03T03:18:47;99999.84;;;-0.05;100.00
67373;BME280;54257;54.496;18.412;2023-03-03T03:21:37;99998.96;;;-0.03;100.00
67373;BME280;54257;54.496;18.412;2023-03-03T03:24:24;99997.78;;;-0.00;100.00
67373;BME280;54257;54.496;18.412;2023-03-03T03:27:12;99992.23;;;0.03;100.00
67373;BME280;54257;54.496;18.412;2023-03-03T03:30:01;99990.39;;;0.06;100.00
67373;BME280;54257;54.496;18.412;2023-03-03T03:32:48;99986.73;;;0.09;100.00
67373;BME280;54257;54.496;18.412;2023-03-03T03:35:37;99989.23;;;0.12;100.00
67373;BME280;54257;54.496;18.412;2023-03-03T03:38:27;99989.23;;;0.15;100.00
67373;BME280;54257;54.496;18.412;2023-03-03T03:41:16;99989.23;;;0.17;100.00
67373;BME280;54257;54.496;18.412;2023-03-03T03:44:04;99992.39;;;0.19;100.00
67373;BME280;54257;54.496;18.412;2023-03-03T03:46:52;99985.40;;;0.24;100.00
67373;BME280;54257;54.496;18.412;2023-03-03T03:49:39;99997.83;;;0.26;100.00
67373;BME280;54257;54.496;18.412;2023-03-03T03:52:27;99993.27;;;0.29;100.00
67373;BME280;54257;54.496;18.412;2023-03-03T03:55:15;99979.33;;;0.32;100.00
67373;BME280;54257;54.496;18.412;2023-03-03T03:58:03;99972.95;;;0.35;100.00
67373;BME280;54257;54.496;18.412;2023-03-03T04:00:51;99966.17;;;0.37;100.00
67373;BME280;54257;54.496;18.412;2023-03-03T04:03:39;99962.27;;;0.39;100.00
67373;BME280;54257;54.496;18.412;2023-03-03T04:06:27;99968.98;;;0.42;100.00
67373;BME280;54257;54.496;18.412;2023-03-03T04:09:15;99969.23;;;0.43;100.00
67373;BME280;54257;54.496;18.412;2023-03-03T04:12:03;99969.30;;;0.45;100.00
67373;BME280;54257;54.496;18.412;2023-03-03T04:14:51;99961.65;;;0.46;100.00
67373;BME280;54257;54.496;18.412;2023-03-03T04:17:38;99974.40;;;0.49;100.00
67373;BME280;54257;54.496;18.412;2023-03-03T04:20:26;99978.53;;;0.50;100.00
67373;BME280;54257;54.496;18.412;2023-03-03T04:23:15;99975.44;;;0.52;100.00
67373;BME280;54257;54.496;18.412;2023-03-03T04:26:02;99958.58;;;0.54;100.00
67373;BME280;54257;54.496;18.412;2023-03-03T04:28:50;99943.24;;;0.56;100.00
67373;BME280;54257;54.496;18.412;2023-03-03T04:31:38;99944.02;;;0.58;100.00
67373;BME280;54257;54.496;18.412;2023-03-03T04:34:26;99934.03;;;0.60;100.00
67373;BME280;54257;54.496;18.412;2023-03-03T04:37:14;99926.88;;;0.61;100.00
67373;BME280;54257;54.496;18.412;2023-03-03T04:40:06;99917.02;;;0.62;100.00
67373;BME280;54257;54.496;18.412;2023-03-03T04:42:54;99923.65;;;0.64;100.00
67373;BME280;54257;54.496;18.412;2023-03-03T04:45:43;99926.77;;;0.65;100.00
67373;BME280;54257;54.496;18.412;2023-03-03T04:48:31;99929.83;;;0.66;100.00
67373;BME280;54257;54.496;18.412;2023-03-03T04:51:18;99915.98;;;0.68;100.00
67373;BME280;54257;54.496;18.412;2023-03-03T04:54:06;99906.31;;;0.69;100.00
67373;BME280;54257;54.496;18.412;2023-03-03T04:56:54;99899.15;;;0.70;100.00
67373;BME280;54257;54.496;18.412;2023-03-03T04:59:42;99899.73;;;0.72;100.00
67373;BME280;54257;54.496;18.412;2023-03-03T05:02:30;99909.06;;;0.73;100.00
67373;BME280;54257;54.496;18.412;2023-03-03T05:05:17;99912.64;;;0.74;100.00
67373;BME280;54257;54.496;18.412;2023-03-03T05:08:05;99918.77;;;0.75;100.00
67373;BME280;54257;54.496;18.412;2023-03-03T05:10:54;99919.96;;;0.76;100.00
67373;BME280;54257;54.496;18.412;2023-03-03T05:13:41;99913.45;;;0.77;100.00
67373;BME280;54257;54.496;18.412;2023-03-03T05:16:29;99916.55;;;0.78;100.00
67373;BME280;54257;54.496;18.412;2023-03-03T05:19:17;99919.63;;;0.79;100.00
67373;BME280;54257;54.496;18.412;2023-03-03T05:22:05;99928.78;;;0.81;100.00
67373;BME280;54257;54.496;18.412;2023-03-03T05:24:53;99927.71;;;0.82;100.00
67373;BME280;54257;54.496;18.412;2023-03-03T05:27:41;99919.39;;;0.84;100.00
67373;BME280;54257;54.496;18.412;2023-03-03T05:30:30;99914.08;;;0.85;100.00
67373;BME280;54257;54.496;18.412;2023-03-03T05:33:17;99915.62;;;0.86;100.00
67373;BME280;54257;54.496;18.412;2023-03-03T05:36:06;99920.83;;;0.86;100.00
67373;BME280;54257;54.496;18.412;2023-03-03T05:38:54;99926.81;;;0.88;100.00
67373;BME280;54257;54.496;18.412;2023-03-03T05:41:41;99933.48;;;0.90;100.00
67373;BME280;54257;54.496;18.412;2023-03-03T05:44:29;99934.59;;;0.91;100.00
67373;BME280;54257;54.496;18.412;2023-03-03T05:47:17;99929.91;;;0.92;100.00
67373;BME280;54257;54.496;18.412;2023-03-03T05:50:05;99929.09;;;0.92;100.00
67373;BME280;54257;54.496;18.412;2023-03-03T05:52:55;99933.16;;;0.93;100.00
67373;BME280;54257;54.496;18.412;2023-03-03T05:55:43;99938.39;;;0.93;100.00
67373;BME280;54257;54.496;18.412;2023-03-03T05:58:31;99938.23;;;0.93;100.00
67373;BME280;54257;54.496;18.412;2023-03-03T06:01:18;99944.95;;;0.93;100.00
67373;BME280;54257;54.496;18.412;2023-03-03T06:04:07;99948.69;;;0.94;100.00
67373;BME280;54257;54.496;18.412;2023-03-03T06:06:55;99948.04;;;0.95;100.00
67373;BME280;54257;54.496;18.412;2023-03-03T06:09:43;99946.71;;;0.95;100.00
67373;BME280;54257;54.496;18.412;2023-03-03T06:12:30;99947.48;;;0.97;100.00
67373;BME280;54257;54.496;18.412;2023-03-03T06:15:18;99949.14;;;0.99;100.00
67373;BME280;54257;54.496;18.412;2023-03-03T06:18:06;99947.79;;;1.02;100.00
67373;BME280;54257;54.496;18.412;2023-03-03T06:20:54;99951.45;;;1.05;100.00
67373;BME280;54257;54.496;18.412;2023-03-03T06:23:42;99955.65;;;1.08;100.00
67373;BME280;54257;54.496;18.412;2023-03-03T06:26:31;99957.18;;;1.11;100.00
67373;BME280;54257;54.496;18.412;2023-03-03T06:29:19;99962.77;;;1.15;100.00
67373;BME280;54257;54.496;18.412;2023-03-03T06:32:07;99962.61;;;1.18;100.00
67373;BME280;54257;54.496;18.412;2023-03-03T06:34:55;99955.35;;;1.21;100.00
67373;BME280;54257;54.496;18.412;2023-03-03T06:37:42;99955.29;;;1.26;100.00
67373;BME280;54257;54.496;18.412;2023-03-03T06:40:30;99949.94;;;1.33;100.00
67373;BME280;54257;54.496;18.412;2023-03-03T06:43:18;99946.70;;;1.38;100.00
67373;BME280;54257;54.496;18.412;2023-03-03T06:46:06;99942.88;;;1.43;100.00
67373;BME280;54257;54.496;18.412;2023-03-03T06:48:53;99948.30;;;1.47;100.00
67373;BME280;54257;54.496;18.412;2023-03-03T06:51:41;99954.84;;;1.53;100.00
67373;BME280;54257;54.496;18.412;2023-03-03T06:54:31;99954.15;;;1.59;100.00
67373;BME280;54257;54.496;18.412;2023-03-03T07:03:21;99961.72;;;1.75;100.00
67373;BME280;54257;54.496;18.412;2023-03-03T07:06:22;99961.14;;;1.83;100.00
67373;BME280;54257;54.496;18.412;2023-03-03T07:09:21;99965.29;;;1.88;100.00
67373;BME280;54257;54.496;18.412;2023-03-03T07:12:14;99966.70;;;1.93;100.00
67373;BME280;54257;54.496;18.412;2023-03-03T07:15:34;99969.96;;;1.98;99.75
67373;BME280;54257;54.496;18.412;2023-03-03T07:18:34;99968.50;;;2.06;99.57
67373;BME280;54257;54.496;18.412;2023-03-03T07:25:32;99959.63;;;2.20;98.52
67373;BME280;54257;54.496;18.412;2023-03-03T07:28:26;99962.76;;;2.26;98.58
67373;BME280;54257;54.496;18.412;2023-03-03T07:30:55;99964.23;;;2.32;98.39
67373;BME280;54257;54.496;18.412;2023-03-03T07:33:34;99967.02;;;2.40;98.17
67373;BME280;54257;54.496;18.412;2023-03-03T07:36:17;99969.85;;;2.50;98.17
67373;BME280;54257;54.496;18.412;2023-03-03T07:38:52;99964.20;;;2.59;97.78
67373;BME280;54257;54.496;18.412;2023-03-03T07:41:20;99965.65;;;2.64;97.42
67373;BME280;54257;54.496;18.412;2023-03-03T07:43:54;99969.95;;;2.73;97.49
67373;BME280;54257;54.496;18.412;2023-03-03T07:46:44;99968.72;;;2.78;96.45
67373;BME280;54257;54.496;18.412;2023-03-03T07:49:33;99972.11;;;2.83;96.23
67373;BME280;54257;54.496;18.412;2023-03-03T07:55:01;99971.70;;;2.96;96.08
67373;BME280;54257;54.496;18.412;2023-03-03T07:57:45;99973.98;;;3.08;96.17
67373;BME280;54257;54.496;18.412;2023-03-03T08:03:04;99966.83;;;3.33;95.61
67373;BME280;54257;54.496;18.412;2023-03-03T08:05:42;99962.92;;;3.44;94.75
67373;BME280;54257;54.496;18.412;2023-03-03T08:08:28;99957.25;;;3.52;93.83
67373;BME280;54257;54.496;18.412;2023-03-03T08:11:02;99961.83;;;3.72;94.96
67373;BME280;54257;54.496;18.412;2023-03-03T08:13:35;99955.46;;;3.97;94.58
67373;BME280;54257;54.496;18.412;2023-03-03T08:18:44;99954.73;;;4.32;93.34
67373;BME280;54257;54.496;18.412;2023-03-03T08:21:19;99954.19;;;4.43;91.56
67373;BME280;54257;54.496;18.412;2023-03-03T08:23:47;99951.15;;;4.56;90.67
67373;BME280;54257;54.496;18.412;2023-03-03T08:26:21;99951.55;;;4.70;91.16
67373;BME280;54257;54.496;18.412;2023-03-03T08:28:48;99947.73;;;4.80;89.70
67373;BME280;54257;54.496;18.412;2023-03-03T08:31:15;99947.03;;;4.80;87.73
67373;BME280;54257;54.496;18.412;2023-03-03T08:33:44;99947.14;;;4.82;88.14
67373;BME280;54257;54.496;18.412;2023-03-03T08:36:12;99942.84;;;4.85;86.98
67373;BME280;54257;54.496;18.412;2023-03-03T08:38:40;99944.62;;;4.91;86.75
67373;BME280;54257;54.496;18.412;2023-03-03T08:41:07;99946.13;;;5.00;86.96
67373;BME280;54257;54.496;18.412;2023-03-03T08:43:35;99948.42;;;5.06;85.73
67373;BME280;54257;54.496;18.412;2023-03-03T08:46:04;99950.48;;;5.03;84.79
67373;BME280;54257;54.496;18.412;2023-03-03T08:48:33;99949.14;;;5.03;84.84
67373;BME280;54257;54.496;18.412;2023-03-03T08:51:00;99947.92;;;5.03;84.27
67373;BME280;54257;54.496;18.412;2023-03-03T08:53:27;99950.66;;;5.08;85.03
67373;BME280;54257;54.496;18.412;2023-03-03T08:55:54;99950.24;;;5.19;84.41
67373;BME280;54257;54.496;18.412;2023-03-03T08:58:22;99958.09;;;5.29;84.13
67373;BME280;54257;54.496;18.412;2023-03-03T09:00:49;99958.53;;;5.36;83.00
67373;BME280;54257;54.496;18.412;2023-03-03T09:03:16;99959.81;;;5.44;83.13
67373;BME280;54257;54.496;18.412;2023-03-03T09:05:44;99958.16;;;5.54;82.74
67373;BME280;54257;54.496;18.412;2023-03-03T09:08:11;99956.11;;;5.63;81.49
67373;BME280;54257;54.496;18.412;2023-03-03T09:10:38;99951.11;;;5.66;80.24
67373;BME280;54257;54.496;18.412;2023-03-03T09:13:16;99948.04;;;5.65;79.73
67373;BME280;54257;54.496;18.412;2023-03-03T09:15:47;99949.48;;;5.68;79.86
67373;BME280;54257;54.496;18.412;2023-03-03T09:18:34;99947.34;;;5.69;79.73
67373;BME280;54257;54.496;18.412;2023-03-03T09:21:25;99939.45;;;5.71;79.33
67373;BME280;54257;54.496;18.412;2023-03-03T09:23:58;99942.79;;;5.70;79.59
67373;BME280;54257;54.496;18.412;2023-03-03T09:26:44;99944.41;;;5.63;78.21
67373;BME280;54257;54.496;18.412;2023-03-03T09:31:46;99940.36;;;5.68;79.66
67373;BME280;54257;54.496;18.412;2023-03-03T09:36:43;99937.54;;;6.18;79.27
67373;BME280;54257;54.496;18.412;2023-03-03T09:39:31;99934.80;;;6.27;76.56
67373;BME280;54257;54.496;18.412;2023-03-03T09:47:39;99932.83;;;6.61;77.63
67373;BME280;54257;54.496;18.412;2023-03-03T09:53:09;99927.91;;;7.04;72.93
67373;BME280;54257;54.496;18.412;2023-03-03T09:56:02;99928.16;;;7.07;73.26
67373;BME280;54257;54.496;18.412;2023-03-03T10:04:48;99919.89;;;7.50;72.79
67373;BME280;54257;54.496;18.412;2023-03-03T10:14:20;99904.95;;;8.40;67.58
67373;BME280;54257;54.496;18.412;2023-03-03T10:16:31;99904.95;;;8.14;65.15
67373;BME280;54257;54.496;18.412;2023-03-03T10:21:50;99910.19;;;8.00;68.02
67373;BME280;54257;54.496;18.412;2023-03-03T10:24:26;99905.77;;;8.19;66.61
67373;BME280;54257;54.496;18.412;2023-03-03T10:30:11;99907.40;;;7.71;65.87
67373;BME280;54257;54.496;18.412;2023-03-03T10:32:57;99910.63;;;7.53;66.15
67373;BME280;54257;54.496;18.412;2023-03-03T10:41:37;99917.11;;;7.54;68.19
67373;BME280;54257;54.496;18.412;2023-03-03T10:54:55;99904.42;;;8.47;67.24
67373;BME280;54257;54.496;18.412;2023-03-03T11:00:28;99904.24;;;8.68;64.78
67373;BME280;54257;54.496;18.412;2023-03-03T11:22:45;99875.30;;;9.15;65.42
67373;BME280;54257;54.496;18.412;2023-03-03T11:37:01;99862.44;;;9.64;60.59
67373;BME280;54257;54.496;18.412;2023-03-03T11:39:25;99857.13;;;9.44;60.15
67373;BME280;54257;54.496;18.412;2023-03-03T11:42:24;99850.95;;;9.59;61.77
67373;BME280;54257;54.496;18.412;2023-03-03T11:45:02;99841.15;;;10.03;62.37
67373;BME280;54257;54.496;18.412;2023-03-03T11:47:57;99839.41;;;10.42;61.95
67373;BME280;54257;54.496;18.412;2023-03-03T11:50:54;99836.50;;;10.54;60.36
67373;BME280;54257;54.496;18.412;2023-03-03T12:08:20;99803.29;;;10.72;54.83
67373;BME280;54257;54.496;18.412;2023-03-03T12:20:48;99781.63;;;11.50;54.52
67373;BME280;54257;54.496;18.412;2023-03-03T12:35:41;99772.13;;;11.59;49.28
67373;BME280;54257;54.496;18.412;2023-03-03T12:47:00;99763.61;;;11.44;49.89
67373;BME280;54257;54.496;18.412;2023-03-03T12:49:44;99764.38;;;11.53;49.97
67373;BME280;54257;54.496;18.412;2023-03-03T13:00:38;99746.02;;;11.66;50.23
67373;BME280;54257;54.496;18.412;2023-03-03T13:06:31;99743.39;;;11.58;50.59
67373;BME280;54257;54.496;18.412;2023-03-03T13:09:15;99743.75;;;11.60;49.52
67373;BME280;54257;54.496;18.412;2023-03-03T13:17:25;99727.13;;;11.05;48.48
67373;BME280;54257;54.496;18.412;2023-03-03T13:20:01;99732.23;;;10.87;47.93
67373;BME280;54257;54.496;18.412;2023-03-03T13:27:46;99733.70;;;10.29;48.03
67373;BME280;54257;54.496;18.412;2023-03-03T13:30:26;99734.36;;;10.17;49.09
67373;BME280;54257;54.496;18.412;2023-03-03T13:33:22;99737.04;;;10.02;49.09
67373;BME280;54257;54.496;18.412;2023-03-03T13:35:57;99727.21;;;9.95;50.34
67373;BME280;54257;54.496;18.412;2023-03-03T13:38:40;99727.18;;;9.94;50.76
67373;BME280;54257;54.496;18.412;2023-03-03T13:44:08;99717.35;;;9.76;50.61
67373;BME280;54257;54.496;18.412;2023-03-03T13:52:21;99717.09;;;9.50;52.13
67373;BME280;54257;54.496;18.412;2023-03-03T14:06:26;99703.58;;;9.57;51.80
67373;BME280;54257;54.496;18.412;2023-03-03T14:14:41;99696.39;;;9.25;51.99
67373;BME280;54257;54.496;18.412;2023-03-03T14:20:28;99689.55;;;9.05;52.20
67373;BME280;54257;54.496;18.412;2023-03-03T14:23:00;99688.08;;;8.90;52.74
67373;BME280;54257;54.496;18.412;2023-03-03T14:25:52;99697.64;;;8.73;52.13
67373;BME280;54257;54.496;18.412;2023-03-03T14:28:21;99690.31;;;8.48;51.40
67373;BME280;54257;54.496;18.412;2023-03-03T14:30:53;99684.77;;;8.27;51.58
67373;BME280;54257;54.496;18.412;2023-03-03T14:33:25;99683.34;;;8.09;51.45
67373;BME280;54257;54.496;18.412;2023-03-03T14:38:35;99671.70;;;7.76;53.01
67373;BME280;54257;54.496;18.412;2023-03-03T14:41:18;99668.52;;;7.62;53.64
67373;BME280;54257;54.496;18.412;2023-03-03T14:43:59;99662.36;;;7.54;54.44
67373;BME280;54257;54.496;18.412;2023-03-03T14:49:03;99658.94;;;7.24;56.34
67373;BME280;54257;54.496;18.412;2023-03-03T14:51:41;99663.98;;;7.10;57.30
67373;BME280;54257;54.496;18.412;2023-03-03T14:54:27;99658.03;;;7.02;57.64
67373;BME280;54257;54.496;18.412;2023-03-03T15:02:43;99647.80;;;6.82;59.42
67373;BME280;54257;54.496;18.412;2023-03-03T15:05:21;99644.34;;;6.72;59.89
67373;BME280;54257;54.496;18.412;2023-03-03T15:08:06;99640.42;;;6.59;60.28
67373;BME280;54257;54.496;18.412;2023-03-03T15:10:41;99639.05;;;6.46;60.27
67373;BME280;54257;54.496;18.412;2023-03-03T15:18:27;99632.77;;;6.22;61.31
67373;BME280;54257;54.496;18.412;2023-03-03T15:21:12;99634.76;;;6.14;61.25
67373;BME280;54257;54.496;18.412;2023-03-03T15:23:55;99628.27;;;6.07;61.08
67373;BME280;54257;54.496;18.412;2023-03-03T15:29:29;99623.88;;;5.91;61.75
67373;BME280;54257;54.496;18.412;2023-03-03T15:34:56;99611.32;;;5.74;61.88
67373;BME280;54257;54.496;18.412;2023-03-03T15:40:36;99604.09;;;5.59;62.06
67373;BME280;54257;54.496;18.412;2023-03-03T15:52:19;99591.02;;;5.25;63.44
67373;BME280;54257;54.496;18.412;2023-03-03T15:58:05;99569.02;;;5.04;64.32
67373;BME280;54257;54.496;18.412;2023-03-03T16:03:34;99554.98;;;4.84;65.49
67373;BME280;54257;54.496;18.412;2023-03-03T16:06:11;99554.51;;;4.74;65.77
67373;BME280;54257;54.496;18.412;2023-03-03T16:11:46;99544.16;;;4.53;66.51
67373;BME280;54257;54.496;18.412;2023-03-03T16:14:25;99543.86;;;4.44;66.62
67373;BME280;54257;54.496;18.412;2023-03-03T16:19:59;99546.03;;;4.29;67.61
67373;BME280;54257;54.496;18.412;2023-03-03T16:42:22;99536.52;;;3.80;71.49
67373;BME280;54257;54.496;18.412;2023-03-03T17:01:14;99529.60;;;3.44;74.57
67373;BME280;54257;54.496;18.412;2023-03-03T17:03:57;99529.13;;;3.35;75.26
67373;BME280;54257;54.496;18.412;2023-03-03T17:06:42;99527.02;;;3.33;75.11
67373;BME280;54257;54.496;18.412;2023-03-03T17:15:17;99521.08;;;3.19;76.94
67373;BME280;54257;54.496;18.412;2023-03-03T17:20:50;99512.70;;;3.08;78.60
67373;BME280;54257;54.496;18.412;2023-03-03T17:31:56;99503.55;;;2.90;81.10
67373;BME280;54257;54.496;18.412;2023-03-03T17:34:47;99494.77;;;2.85;82.09
67373;BME280;54257;54.496;18.412;2023-03-03T17:43:08;99489.73;;;2.77;82.96
67373;BME280;54257;54.496;18.412;2023-03-03T17:45:40;99493.17;;;2.75;83.87
67373;BME280;54257;54.496;18.412;2023-03-03T17:51:18;99491.44;;;2.73;82.92
67373;BME280;54257;54.496;18.412;2023-03-03T18:02:33;99474.34;;;2.68;84.75
67373;BME280;54257;54.496;18.412;2023-03-03T18:05:26;99473.28;;;2.66;84.89
67373;BME280;54257;54.496;18.412;2023-03-03T18:11:29;99467.77;;;2.63;85.59
67373;BME280;54257;54.496;18.412;2023-03-03T18:22:31;99445.05;;;2.56;86.33
67373;BME280;54257;54.496;18.412;2023-03-03T18:25:08;99443.80;;;2.54;86.38
67373;BME280;54257;54.496;18.412;2023-03-03T18:33:35;99432.95;;;2.48;86.17
67373;BME280;54257;54.496;18.412;2023-03-03T18:36:13;99431.10;;;2.44;86.00
67373;BME280;54257;54.496;18.412;2023-03-03T18:38:45;99428.59;;;2.40;86.39
67373;BME280;54257;54.496;18.412;2023-03-03T18:41:22;99425.70;;;2.35;86.48
67373;BME280;54257;54.496;18.412;2023-03-03T18:43:52;99425.16;;;2.31;86.50
67373;BME280;54257;54.496;18.412;2023-03-03T18:49:05;99408.63;;;2.21;86.55
67373;BME280;54257;54.496;18.412;2023-03-03T19:04:50;99378.92;;;1.91;87.86
67373;BME280;54257;54.496;18.412;2023-03-03T19:07:24;99385.20;;;1.88;87.34
67373;BME280;54257;54.496;18.412;2023-03-03T19:12:57;99388.60;;;1.81;88.01
67373;BME280;54257;54.496;18.412;2023-03-03T19:26:41;99390.39;;;1.72;88.68
67373;BME280;54257;54.496;18.412;2023-03-03T19:56:16;99388.52;;;1.79;88.85
67373;BME280;54257;54.496;18.412;2023-03-03T19:58:54;99392.86;;;1.82;88.51
67373;BME280;54257;54.496;18.412;2023-03-03T20:12:50;99376.99;;;1.86;88.41
67373;BME280;54257;54.496;18.412;2023-03-03T20:15:42;99376.48;;;1.85;88.35
67373;BME280;54257;54.496;18.412;2023-03-03T20:21:18;99371.53;;;1.87;87.81
67373;BME280;54257;54.496;18.412;2023-03-03T20:35:35;99348.13;;;1.87;87.55
67373;BME280;54257;54.496;18.412;2023-03-03T20:41:02;99336.99;;;1.87;87.31
67373;BME280;54257;54.496;18.412;2023-03-03T20:44:03;99338.64;;;1.87;87.13
67373;BME280;54257;54.496;18.412;2023-03-03T20:46:39;99345.36;;;1.86;87.45
67373;BME280;54257;54.496;18.412;2023-03-03T20:50:10;99355.30;;;1.86;87.38
67373;BME280;54257;54.496;18.412;2023-03-03T20:55:38;99312.13;;;1.84;88.07
67373;BME280;54257;54.496;18.412;2023-03-03T21:01:06;99281.33;;;1.80;88.23
67373;BME280;54257;54.496;18.412;2023-03-03T21:03:42;99264.09;;;1.79;88.23
67373;BME280;54257;54.496;18.412;2023-03-03T21:08:51;99258.30;;;1.77;88.03
67373;BME280;54257;54.496;18.412;2023-03-03T21:13:57;99239.91;;;1.76;87.99
67373;BME280;54257;54.496;18.412;2023-03-03T21:19:12;99242.73;;;1.75;88.06
67373;BME280;54257;54.496;18.412;2023-03-03T21:21:48;99241.05;;;1.75;87.95
67373;BME280;54257;54.496;18.412;2023-03-03T21:24:16;99235.18;;;1.76;87.84
67373;BME280;54257;54.496;18.412;2023-03-03T21:31:50;99205.34;;;1.74;88.57